Time;durP1;ratioP1;P1;durP2;ratioP2;P2;SDS_P1;SDS_P2;PMS_P1;PMS_P2;Temp;Humidity;BMP_temperature;BMP_pressure;BME280_temperature;BME280_humidity;BME280_pressure;Samples;Min_cycle;Max_cycle;Signal;HPM_P1;HPM_P2
2021/12/06 00:00:15;;;;;;;36.97;16.95;;;;;;;;;;5094058;28;20031;-72
2021/12/06 00:02:41;;;;;;;35.22;16.35;;;;;;;;;;5094143;28;20035;-74
2021/12/06 00:05:08;;;;;;;30.73;14.68;;;;;;;;;;5112306;28;20031;-73
2021/12/06 00:07:34;;;;;;;34.80;16.20;;;;;;;;;;5097055;28;20487;-73
2021/12/06 00:10:00;;;;;;;31.98;16.10;;;;;;;;;;5116198;28;20052;-73
2021/12/06 00:12:27;;;;;;;31.35;14.88;;;;;;;;;;5097928;28;20076;-73
2021/12/06 00:14:53;;;;;;;28.02;13.32;;;;;;;;;;5097668;28;20027;-74
2021/12/06 00:17:19;;;;;;;27.15;12.15;;;;;;;;;;5097576;28;20015;-73
2021/12/06 00:19:46;;;;;;;26.60;12.00;;;;;;;;;;5097443;28;20040;-72
2021/12/06 00:22:13;;;;;;;24.65;13.05;;;;;;;;;;5115914;28;20103;-73
2021/12/06 00:24:40;;;;;;;23.55;11.00;;;;;;;;;;5116021;28;20028;-74
2021/12/06 00:27:07;;;;;;;21.92;12.07;;;;;;;;;;5097454;28;20027;-73
2021/12/06 00:29:33;;;;;;;28.17;10.95;;;;;;;;;;5097338;28;20121;-73
2021/12/06 00:31:59;;;;;;;21.40;10.48;;;;;;;;;;5097393;28;20025;-72
2021/12/06 00:34:30;;;;;;;23.17;12.02;;;;;;;;;;5097305;28;20028;-72
2021/12/06 00:37:17;;;;;;;27.65;13.18;;;;;;;;;;5097589;28;20023;-71
2021/12/06 00:39:54;;;;;;;26.98;13.60;;;;;;;;;;5097105;28;20491;-72
2021/12/06 00:42:22;;;;;;;24.50;12.88;;;;;;;;;;5097138;28;20425;-73
2021/12/06 00:44:49;;;;;;;23.77;11.00;;;;;;;;;;5096990;28;20495;-74
2021/12/06 00:47:16;;;;;;;19.50;10.50;;;;;;;;;;5097051;28;20024;-73
2021/12/06 00:49:44;;;;;;;24.08;12.02;;;;;;;;;;5115490;28;20027;-71
2021/12/06 00:52:11;;;;;;;22.98;11.15;;;;;;;;;;5096890;28;20380;-74
2021/12/06 00:54:37;;;;;;;21.50;10.48;;;;;;;;;;5115084;28;20046;-73
2021/12/06 00:57:04;;;;;;;20.58;10.93;;;;;;;;;;5115025;28;20027;-73
2021/12/06 00:59:31;;;;;;;20.75;9.15;;;;;;;;;;5114873;28;20089;-73
2021/12/06 01:01:57;;;;;;;22.02;11.10;;;;;;;;;;5096678;28;20063;-72
2021/12/06 01:04:24;;;;;;;17.45;9.13;;;;;;;;;;5115017;28;20139;-74
2021/12/06 01:06:50;;;;;;;20.27;10.48;;;;;;;;;;5114813;28;20508;-73
2021/12/06 01:09:16;;;;;;;20.67;10.65;;;;;;;;;;5096614;28;20028;-73
2021/12/06 01:11:42;;;;;;;19.88;9.98;;;;;;;;;;5096547;28;20468;-74
2021/12/06 01:14:08;;;;;;;21.33;11.18;;;;;;;;;;5096830;28;20024;-75
2021/12/06 01:16:34;;;;;;;18.55;10.68;;;;;;;;;;5114779;28;20024;-73
2021/12/06 01:19:00;;;;;;;21.52;11.75;;;;;;;;;;5095303;28;20044;-73
2021/12/06 01:21:40;;;;;;;20.95;10.32;;;;;;;;;;5096398;28;20020;-72
2021/12/06 01:24:08;;;;;;;22.40;10.55;;;;;;;;;;5096484;28;20031;-73
2021/12/06 01:27:06;;;;;;;17.15;8.63;;;;;;;;;;5096326;28;20024;-71
2021/12/06 01:39:55;;;;;;;20.42;10.30;;;;;;;;;;5114232;28;20076;-72
2021/12/06 01:42:22;;;;;;;18.48;8.25;;;;;;;;;;5096194;28;20428;-73
2021/12/06 01:44:50;;;;;;;13.32;6.93;;;;;;;;;;5114122;28;20028;-73
2021/12/06 01:47:18;;;;;;;7.68;4.50;;;;;;;;;;5096156;28;20437;-72
2021/12/06 01:49:46;;;;;;;7.40;4.13;;;;;;;;;;5095720;28;20116;-71
2021/12/06 01:52:15;;;;;;;5.30;3.42;;;;;;;;;;5095794;28;20027;-73
2021/12/06 01:54:42;;;;;;;5.65;2.67;;;;;;;;;;5114308;28;20387;-72
2021/12/06 01:57:08;;;;;;;3.92;2.42;;;;;;;;;;5095707;28;20027;-73
2021/12/06 01:59:34;;;;;;;3.95;2.30;;;;;;;;;;5095680;28;20035;-72
2021/12/06 02:02:00;;;;;;;4.22;2.35;;;;;;;;;;5113788;28;20042;-72
2021/12/06 02:04:29;;;;;;;3.50;2.20;;;;;;;;;;5114025;28;20023;-73
2021/12/06 02:06:56;;;;;;;3.45;1.80;;;;;;;;;;5113518;28;20491;-73
2021/12/06 02:09:26;;;;;;;8.13;2.63;;;;;;;;;;5113582;28;20444;-71
2021/12/06 02:11:53;;;;;;;4.00;2.45;;;;;;;;;;5113578;28;20034;-72
2021/12/06 02:17:01;;;;;;;3.38;2.03;;;;;;;;;;5113518;28;20020;-72
2021/12/06 02:19:32;;;;;;;3.22;2.05;;;;;;;;;;5113500;28;20036;-73
2021/12/06 02:22:00;;;;;;;3.22;1.67;;;;;;;;;;5113477;28;20026;-72
2021/12/06 02:24:27;;;;;;;2.70;1.75;;;;;;;;;;5095169;28;20506;-73
2021/12/06 02:26:53;;;;;;;4.13;2.33;;;;;;;;;;5113431;28;20585;-74
2021/12/06 02:29:20;;;;;;;3.60;1.88;;;;;;;;;;5113021;28;20034;-73
2021/12/06 02:31:47;;;;;;;2.90;1.80;;;;;;;;;;5113385;28;20024;-72
2021/12/06 02:34:13;;;;;;;2.92;1.67;;;;;;;;;;5095025;28;20023;-72
2021/12/06 02:36:40;;;;;;;3.10;2.00;;;;;;;;;;5095028;28;20020;-73
2021/12/06 02:39:09;;;;;;;4.47;1.95;;;;;;;;;;5113088;28;20035;-74
2021/12/06 02:41:36;;;;;;;5.68;3.03;;;;;;;;;;5095008;28;20026;-72
2021/12/06 02:44:02;;;;;;;4.30;2.53;;;;;;;;;;5113298;28;20039;-72
2021/12/06 02:46:29;;;;;;;4.20;2.55;;;;;;;;;;5094879;28;20016;-73
2021/12/06 02:48:55;;;;;;;4.10;2.63;;;;;;;;;;5113293;28;20074;-72
2021/12/06 02:51:25;;;;;;;3.55;2.30;;;;;;;;;;5094754;28;20024;-72
2021/12/06 02:53:51;;;;;;;3.00;2.03;;;;;;;;;;5094789;28;20050;-72
2021/12/06 02:58:58;;;;;;;2.95;1.90;;;;;;;;;;5112916;28;20092;-73
2021/12/06 03:01:29;;;;;;;3.53;2.00;;;;;;;;;;5094717;28;20028;-72
2021/12/06 03:03:56;;;;;;;2.97;2.05;;;;;;;;;;5094715;28;20475;-73
2021/12/06 03:06:22;;;;;;;4.15;2.50;;;;;;;;;;5090989;28;20059;-74
2021/12/06 03:09:06;;;;;;;2.65;1.70;;;;;;;;;;5091302;28;20028;-75
2021/12/06 03:11:34;;;;;;;4.15;2.10;;;;;;;;;;5091335;28;20376;-73
2021/12/06 03:14:01;;;;;;;3.15;1.85;;;;;;;;;;5091157;28;20039;-73
2021/12/06 03:16:28;;;;;;;3.72;2.47;;;;;;;;;;5091165;28;20055;-73
2021/12/06 03:18:55;;;;;;;3.83;1.77;;;;;;;;;;5092656;28;20032;-72
2021/12/06 03:21:22;;;;;;;3.67;2.00;;;;;;;;;;5092425;28;20100;-72
2021/12/06 03:23:49;;;;;;;2.92;2.00;;;;;;;;;;5092362;28;20051;-73
2021/12/06 03:26:16;;;;;;;3.08;1.92;;;;;;;;;;5092404;28;20024;-73
2021/12/06 03:28:44;;;;;;;4.28;1.80;;;;;;;;;;5092401;28;20024;-73
2021/12/06 03:31:11;;;;;;;3.33;1.77;;;;;;;;;;5092409;28;20036;-72
2021/12/06 03:33:38;;;;;;;4.47;2.35;;;;;;;;;;5091031;28;20380;-73
2021/12/06 03:36:05;;;;;;;4.80;2.50;;;;;;;;;;5091053;28;20020;-72
2021/12/06 03:38:32;;;;;;;4.72;2.50;;;;;;;;;;5090912;28;20028;-72
2021/12/06 03:40:58;;;;;;;4.22;2.22;;;;;;;;;;5091748;28;20035;-74
2021/12/06 03:43:24;;;;;;;5.40;2.42;;;;;;;;;;5094968;28;20070;-74
2021/12/06 03:45:51;;;;;;;4.22;2.50;;;;;;;;;;5094879;28;21028;-73
2021/12/06 03:48:17;;;;;;;4.43;2.72;;;;;;;;;;5096133;28;20028;-72
2021/12/06 03:50:43;;;;;;;4.18;2.58;;;;;;;;;;5094781;28;20077;-72
2021/12/06 03:53:10;;;;;;;4.85;3.10;;;;;;;;;;5094756;28;20123;-73
2021/12/06 03:55:36;;;;;;;6.07;3.30;;;;;;;;;;5095969;28;20099;-73
2021/12/06 03:58:03;;;;;;;8.05;3.88;;;;;;;;;;5094504;28;20028;-73
2021/12/06 04:00:29;;;;;;;5.97;3.60;;;;;;;;;;5094602;28;20039;-73
2021/12/06 04:02:55;;;;;;;5.43;3.20;;;;;;;;;;5095843;28;20379;-73
2021/12/06 04:05:22;;;;;;;6.75;3.70;;;;;;;;;;5095032;28;20034;-74
2021/12/06 04:07:48;;;;;;;5.65;3.60;;;;;;;;;;5097870;28;20055;-73
2021/12/06 04:10:14;;;;;;;6.32;4.10;;;;;;;;;;5115992;28;20028;-72
2021/12/06 04:12:41;;;;;;;6.70;3.78;;;;;;;;;;5115911;28;20024;-73
2021/12/06 04:15:08;;;;;;;8.38;4.20;;;;;;;;;;5116218;28;20383;-72
2021/12/06 04:17:38;;;;;;;7.78;4.55;;;;;;;;;;5097606;28;20038;-73
2021/12/06 04:20:10;;;;;;;7.47;3.92;;;;;;;;;;5115752;28;20122;-74
2021/12/06 04:22:37;;;;;;;7.30;4.45;;;;;;;;;;5116157;28;20020;-74
2021/12/06 04:25:04;;;;;;;8.82;5.18;;;;;;;;;;5115718;28;20039;-73
2021/12/06 04:27:30;;;;;;;7.53;4.45;;;;;;;;;;5115672;28;20019;-73
2021/12/06 04:29:57;;;;;;;6.53;4.05;;;;;;;;;;5115670;28;20480;-73
2021/12/06 04:32:23;;;;;;;7.60;4.00;;;;;;;;;;5115542;28;20031;-73
2021/12/06 04:34:50;;;;;;;7.13;4.00;;;;;;;;;;5115544;28;20020;-73
2021/12/06 04:37:17;;;;;;;6.70;3.83;;;;;;;;;;5115548;28;20102;-71
2021/12/06 04:39:43;;;;;;;7.38;3.97;;;;;;;;;;5097050;28;20035;-71
2021/12/06 04:42:09;;;;;;;6.85;3.58;;;;;;;;;;5097170;28;20051;-73
2021/12/06 04:44:35;;;;;;;6.70;3.92;;;;;;;;;;5097069;28;20114;-73
2021/12/06 04:47:02;;;;;;;7.88;4.10;;;;;;;;;;5097267;28;20115;-72
2021/12/06 04:49:29;;;;;;;8.10;4.40;;;;;;;;;;5115257;28;20032;-72
2021/12/06 04:51:58;;;;;;;6.38;3.80;;;;;;;;;;5097063;28;20020;-74
2021/12/06 04:54:26;;;;;;;7.55;4.25;;;;;;;;;;5096913;28;20028;-73
2021/12/06 04:57:02;;;;;;;7.70;4.10;;;;;;;;;;5115046;28;20483;-74
2021/12/06 04:59:39;;;;;;;8.07;4.22;;;;;;;;;;5096788;28;20036;-73
2021/12/06 05:02:08;;;;;;;6.70;3.60;;;;;;;;;;5115089;28;20022;-73
2021/12/06 05:04:36;;;;;;;9.05;4.93;;;;;;;;;;5096801;28;20369;-74
2021/12/06 05:07:07;;;;;;;8.88;5.60;;;;;;;;;;5096404;28;20050;-72
2021/12/06 05:09:36;;;;;;;8.27;5.05;;;;;;;;;;5096726;28;20020;-74
2021/12/06 05:12:02;;;;;;;8.88;5.32;;;;;;;;;;5096426;28;20119;-72
2021/12/06 05:14:28;;;;;;;9.55;5.63;;;;;;;;;;5114851;28;20118;-73
2021/12/06 05:16:55;;;;;;;12.38;6.85;;;;;;;;;;5114989;28;20032;-72
2021/12/06 05:19:21;;;;;;;10.10;5.32;;;;;;;;;;5114809;28;20040;-73
2021/12/06 05:21:47;;;;;;;10.90;6.20;;;;;;;;;;5114659;28;20031;-72
2021/12/06 05:24:16;;;;;;;13.48;6.32;;;;;;;;;;5096347;28;20049;-73
2021/12/06 05:26:42;;;;;;;10.75;6.05;;;;;;;;;;5096282;28;20020;-72
2021/12/06 05:29:08;;;;;;;10.38;5.35;;;;;;;;;;5096261;28;20027;-73
2021/12/06 05:31:39;;;;;;;12.60;6.63;;;;;;;;;;5114422;28;20065;-73
2021/12/06 05:34:12;;;;;;;10.73;5.80;;;;;;;;;;5096081;28;20035;-73
2021/12/06 05:36:38;;;;;;;9.82;5.60;;;;;;;;;;5096049;28;20483;-72
2021/12/06 05:39:06;;;;;;;11.15;5.68;;;;;;;;;;5095983;28;20048;-72
2021/12/06 05:41:33;;;;;;;9.82;6.00;;;;;;;;;;5095579;28;20030;-74
2021/12/06 05:43:59;;;;;;;10.70;5.40;;;;;;;;;;5114348;28;20073;-74
2021/12/06 05:46:25;;;;;;;9.40;5.72;;;;;;;;;;5096580;28;20058;-73
2021/12/06 05:48:51;;;;;;;9.65;5.57;;;;;;;;;;5114912;28;20034;-73
2021/12/06 05:51:18;;;;;;;10.98;6.22;;;;;;;;;;5096633;28;20080;-74
2021/12/06 05:53:44;;;;;;;10.05;5.30;;;;;;;;;;5114699;28;20023;-73
2021/12/06 05:56:10;;;;;;;9.88;4.95;;;;;;;;;;5096605;28;20051;-72
2021/12/06 05:58:37;;;;;;;12.57;6.47;;;;;;;;;;5079702;28;20127;-74
2021/12/06 06:01:04;;;;;;;11.90;6.07;;;;;;;;;;5096474;28;20483;-74
2021/12/06 06:03:30;;;;;;;11.20;5.70;;;;;;;;;;5114250;28;20020;-74
2021/12/06 06:05:56;;;;;;;8.68;5.75;;;;;;;;;;5110494;28;20442;-73
2021/12/06 06:08:22;;;;;;;10.85;6.03;;;;;;;;;;5101819;28;20020;-73
2021/12/06 06:10:51;;;;;;;10.43;6.05;;;;;;;;;;5083367;28;20028;-72
2021/12/06 06:13:18;;;;;;;11.25;5.07;;;;;;;;;;5076056;28;20027;-72
2021/12/06 06:15:44;;;;;;;10.20;5.90;;;;;;;;;;5088304;28;20059;-72
2021/12/06 06:18:10;;;;;;;10.30;5.97;;;;;;;;;;5095823;28;20024;-72
2021/12/06 06:20:45;;;;;;;10.57;5.85;;;;;;;;;;5096009;28;20023;-73
2021/12/06 06:23:11;;;;;;;9.55;5.30;;;;;;;;;;5095977;28;20027;-73
2021/12/06 06:25:38;;;;;;;10.35;6.35;;;;;;;;;;5095958;28;20027;-73
2021/12/06 06:28:05;;;;;;;9.88;5.47;;;;;;;;;;5095811;28;20168;-72
2021/12/06 06:30:31;;;;;;;10.93;6.03;;;;;;;;;;5114019;28;20028;-72
2021/12/06 06:32:58;;;;;;;14.93;8.13;;;;;;;;;;5095865;28;20031;-72
2021/12/06 06:35:24;;;;;;;13.30;6.57;;;;;;;;;;5095774;28;20029;-73
2021/12/06 06:37:50;;;;;;;20.48;11.57;;;;;;;;;;5114069;28;20105;-73
2021/12/06 06:40:16;;;;;;;23.58;15.63;;;;;;;;;;5095621;28;20141;-72
2021/12/06 06:42:43;;;;;;;12.85;7.78;;;;;;;;;;5095712;28;20028;-73
2021/12/06 06:45:10;;;;;;;15.27;8.70;;;;;;;;;;5113966;28;20099;-73
2021/12/06 06:47:36;;;;;;;15.02;7.68;;;;;;;;;;5095637;28;20027;-72
2021/12/06 06:50:03;;;;;;;13.55;7.97;;;;;;;;;;5095724;28;20027;-72
2021/12/06 06:52:29;;;;;;;12.40;6.28;;;;;;;;;;5113812;28;20034;-73
2021/12/06 06:54:55;;;;;;;12.75;6.95;;;;;;;;;;5095580;28;20484;-72
2021/12/06 06:57:21;;;;;;;13.07;6.72;;;;;;;;;;5095634;28;20034;-73
2021/12/06 06:59:48;;;;;;;14.32;6.22;;;;;;;;;;5095429;28;20450;-73
2021/12/06 07:02:15;;;;;;;12.05;6.97;;;;;;;;;;5095368;28;20080;-72
2021/12/06 07:04:41;;;;;;;13.65;7.43;;;;;;;;;;5095479;28;20126;-73
2021/12/06 07:07:08;;;;;;;14.05;7.53;;;;;;;;;;5095203;28;20044;-72
2021/12/06 07:09:34;;;;;;;14.82;9.02;;;;;;;;;;5095423;28;20066;-72
2021/12/06 07:12:00;;;;;;;16.02;8.90;;;;;;;;;;5113619;28;20030;-73
2021/12/06 07:14:27;;;;;;;15.68;8.60;;;;;;;;;;5095179;28;20543;-72
2021/12/06 07:16:55;;;;;;;17.38;8.98;;;;;;;;;;5116255;28;20024;-72
2021/12/06 07:19:21;;;;;;;17.95;9.88;;;;;;;;;;5117585;28;20039;-72
2021/12/06 07:21:47;;;;;;;16.77;9.35;;;;;;;;;;5117738;28;20020;-72
2021/12/06 07:24:13;;;;;;;17.63;9.90;;;;;;;;;;5099246;28;20028;-72
2021/12/06 07:26:40;;;;;;;19.00;9.63;;;;;;;;;;5099372;28;20019;-70
2021/12/06 07:29:08;;;;;;;21.08;10.90;;;;;;;;;;5099186;28;20098;-72
2021/12/06 07:31:34;;;;;;;23.75;11.35;;;;;;;;;;5117575;28;20491;-71
2021/12/06 07:34:00;;;;;;;20.67;10.25;;;;;;;;;;5117390;28;20035;-72
2021/12/06 07:36:29;;;;;;;17.88;9.98;;;;;;;;;;5099082;28;20104;-72
2021/12/06 07:38:55;;;;;;;24.92;11.68;;;;;;;;;;5099017;28;20032;-73
2021/12/06 07:41:22;;;;;;;19.38;10.50;;;;;;;;;;5099089;28;20556;-73
2021/12/06 07:43:48;;;;;;;18.77;11.18;;;;;;;;;;5099035;28;20020;-72
2021/12/06 07:46:15;;;;;;;23.50;12.15;;;;;;;;;;5098991;28;20031;-72
2021/12/06 07:48:41;;;;;;;20.83;10.98;;;;;;;;;;5098644;28;20169;-72
2021/12/06 07:51:08;;;;;;;19.77;9.98;;;;;;;;;;5098877;28;20023;-72
2021/12/06 07:53:38;;;;;;;16.25;9.30;;;;;;;;;;5098846;28;20036;-71
2021/12/06 07:56:04;;;;;;;16.73;8.65;;;;;;;;;;5117221;28;20020;-71
2021/12/06 07:58:30;;;;;;;15.98;9.38;;;;;;;;;;5116881;28;20077;-72
2021/12/06 08:00:57;;;;;;;19.13;9.85;;;;;;;;;;5117322;28;20036;-72
2021/12/06 08:03:26;;;;;;;21.35;9.68;;;;;;;;;;5098394;28;20401;-72
2021/12/06 08:05:53;;;;;;;18.48;9.27;;;;;;;;;;5116608;28;20122;-71
2021/12/06 08:08:23;;;;;;;20.30;9.18;;;;;;;;;;5116736;28;20357;-72
2021/12/06 08:10:51;;;;;;;18.15;8.30;;;;;;;;;;5098513;28;20446;-71
2021/12/06 08:13:19;;;;;;;15.55;8.07;;;;;;;;;;5098498;28;20072;-72
2021/12/06 08:15:45;;;;;;;17.55;8.98;;;;;;;;;;5116883;28;20019;-71
2021/12/06 08:18:12;;;;;;;19.80;9.75;;;;;;;;;;5116468;28;20020;-71
2021/12/06 08:20:39;;;;;;;18.17;9.98;;;;;;;;;;5098171;28;20085;-72
2021/12/06 08:23:06;;;;;;;18.40;9.98;;;;;;;;;;5116392;28;20460;-71
2021/12/06 08:25:32;;;;;;;19.40;9.70;;;;;;;;;;5098265;28;20169;-72
2021/12/06 08:27:59;;;;;;;19.90;10.75;;;;;;;;;;5097666;28;20027;-72
2021/12/06 08:30:26;;;;;;;25.38;13.73;;;;;;;;;;5116299;28;20043;-72
2021/12/06 08:32:55;;;;;;;186.27;68.07;;;;;;;;;;5098049;28;20097;-72
2021/12/06 08:35:22;;;;;;;23.63;11.40;;;;;;;;;;5097927;28;20016;-72
2021/12/06 08:37:48;;;;;;;20.95;10.00;;;;;;;;;;5096450;28;20019;-73
2021/12/06 08:40:16;;;;;;;24.02;10.25;;;;;;;;;;5115817;28;20028;-72
2021/12/06 08:42:43;;;;;;;22.05;10.30;;;;;;;;;;5116179;28;20023;-73
2021/12/06 08:45:10;;;;;;;19.45;9.80;;;;;;;;;;5116097;28;20041;-72
2021/12/06 08:47:37;;;;;;;21.65;10.57;;;;;;;;;;5097693;28;20544;-74
2021/12/06 08:50:03;;;;;;;22.75;11.55;;;;;;;;;;5097621;28;20043;-73
2021/12/06 08:52:31;;;;;;;18.50;9.90;;;;;;;;;;5115891;28;20032;-71
2021/12/06 08:54:57;;;;;;;21.35;10.93;;;;;;;;;;5115738;28;20030;-72
2021/12/06 08:57:23;;;;;;;17.88;9.45;;;;;;;;;;5097490;28;20114;-72
2021/12/06 08:59:49;;;;;;;23.10;10.70;;;;;;;;;;5097511;28;20080;-72
2021/12/06 09:02:15;;;;;;;20.48;10.27;;;;;;;;;;5097616;28;20097;-73
2021/12/06 09:04:43;;;;;;;15.48;8.55;;;;;;;;;;5097483;28;20151;-73
2021/12/06 09:07:12;;;;;;;14.95;7.95;;;;;;;;;;5093812;28;20047;-72
2021/12/06 09:09:46;;;;;;;18.90;9.63;;;;;;;;;;5095288;28;20028;-73
2021/12/06 09:12:12;;;;;;;;;;;;;;;;;;5094168;28;20114;-72
2021/12/06 09:14:39;;;;;;;20.40;9.95;;;;;;;;;;5093550;28;19944;-72
2021/12/06 09:17:05;;;;;;;19.25;9.57;;;;;;;;;;5093821;28;20063;-72
2021/12/06 09:19:31;;;;;;;18.63;8.88;;;;;;;;;;5094008;28;20169;-73
2021/12/06 09:21:57;;;;;;;13.07;7.80;;;;;;;;;;5092674;28;20031;-71
2021/12/06 09:24:23;;;;;;;15.23;8.25;;;;;;;;;;5071960;28;20119;-73
2021/12/06 09:26:50;;;;;;;14.20;7.43;;;;;;;;;;5073599;28;20385;-70
2021/12/06 09:29:16;;;;;;;15.27;7.85;;;;;;;;;;5073256;28;20032;-71
2021/12/06 09:31:43;;;;;;;15.50;7.95;;;;;;;;;;5074880;28;20032;-71
2021/12/06 09:34:10;;;;;;;16.90;9.05;;;;;;;;;;5072979;28;20021;-71
2021/12/06 09:36:37;;;;;;;19.00;9.38;;;;;;;;;;5073102;28;20025;-71
2021/12/06 09:39:04;;;;;;;18.38;9.55;;;;;;;;;;5072190;28;20037;-72
2021/12/06 09:41:31;;;;;;;23.83;10.35;;;;;;;;;;5073097;28;20457;-70
2021/12/06 09:43:59;;;;;;;18.63;10.02;;;;;;;;;;5072813;28;20107;-72
2021/12/06 09:46:28;;;;;;;19.25;10.93;;;;;;;;;;5056504;28;20028;-73
2021/12/06 09:48:54;;;;;;;19.50;10.82;;;;;;;;;;5072996;28;20112;-72
2021/12/06 09:51:24;;;;;;;19.35;10.85;;;;;;;;;;5074224;28;20420;-71
2021/12/06 09:53:51;;;;;;;22.70;11.07;;;;;;;;;;5072483;28;20138;-72
2021/12/06 09:56:20;;;;;;;21.10;11.23;;;;;;;;;;5072513;28;20569;-73
2021/12/06 09:58:46;;;;;;;22.45;10.80;;;;;;;;;;5072641;28;20507;-74
2021/12/06 10:01:25;;;;;;;18.48;10.73;;;;;;;;;;5072643;28;20124;-72
2021/12/06 10:03:53;;;;;;;24.65;11.57;;;;;;;;;;5081481;28;20577;-72
2021/12/06 10:06:20;;;;;;;21.35;10.93;;;;;;;;;;5092390;28;20101;-71
2021/12/06 10:08:49;;;;;;;23.40;11.25;;;;;;;;;;5092845;28;20035;-72
2021/12/06 10:11:16;;;;;;;22.35;11.63;;;;;;;;;;5092838;28;20024;-72
2021/12/06 10:13:43;;;;;;;22.10;11.63;;;;;;;;;;5092574;28;20028;-73
2021/12/06 10:16:09;;;;;;;21.33;11.15;;;;;;;;;;5092540;28;20430;-72
2021/12/06 10:18:36;;;;;;;24.30;12.25;;;;;;;;;;5093794;28;20365;-72
2021/12/06 10:21:02;;;;;;;29.05;13.48;;;;;;;;;;5093902;28;20039;-72
2021/12/06 10:23:29;;;;;;;20.35;11.15;;;;;;;;;;5092817;28;20028;-72
2021/12/06 10:25:56;;;;;;;21.88;11.48;;;;;;;;;;5092435;28;20031;-72
2021/12/06 10:28:25;;;;;;;25.63;12.35;;;;;;;;;;5093662;28;20024;-72
2021/12/06 10:30:53;;;;;;;22.63;12.18;;;;;;;;;;5092496;28;20089;-72
2021/12/06 10:33:24;;;;;;;24.70;12.73;;;;;;;;;;5093799;28;20026;-72
2021/12/06 10:35:52;;;;;;;22.85;12.23;;;;;;;;;;5092301;28;20020;-72
2021/12/06 10:38:27;;;;;;;23.27;12.50;;;;;;;;;;5092220;28;20024;-72
2021/12/06 10:41:01;;;;;;;20.80;11.65;;;;;;;;;;5091416;28;20531;-72
2021/12/06 10:43:28;;;;;;;28.85;13.70;;;;;;;;;;5090759;28;20340;-71
2021/12/06 10:45:54;;;;;;;25.48;12.55;;;;;;;;;;5093077;28;20537;-71
2021/12/06 10:48:28;;;;;;;24.52;12.63;;;;;;;;;;5093482;28;20083;-73
2021/12/06 10:50:54;;;;;;;28.67;14.18;;;;;;;;;;5092133;28;20027;-73
2021/12/06 10:53:21;;;;;;;27.92;13.48;;;;;;;;;;5092149;28;20480;-73
2021/12/06 10:55:50;;;;;;;25.20;12.55;;;;;;;;;;5092036;28;20042;-73
2021/12/06 10:58:17;;;;;;;25.15;12.85;;;;;;;;;;5092059;28;20544;-73
2021/12/06 11:00:47;;;;;;;25.00;11.65;;;;;;;;;;5092107;28;20479;-73
2021/12/06 11:03:25;;;;;;;24.05;12.15;;;;;;;;;;5093255;28;20028;-73
2021/12/06 11:05:54;;;;;;;23.48;12.55;;;;;;;;;;5091709;28;20123;-73
2021/12/06 11:08:20;;;;;;;23.33;12.23;;;;;;;;;;5091972;28;20024;-73
2021/12/06 11:10:48;;;;;;;24.08;12.35;;;;;;;;;;5092090;28;20028;-73
2021/12/06 11:13:16;;;;;;;23.38;12.18;;;;;;;;;;5091849;28;20017;-73
2021/12/06 11:15:53;;;;;;;23.50;12.23;;;;;;;;;;5091837;28;20498;-73
2021/12/06 11:18:33;;;;;;;21.13;11.50;;;;;;;;;;5091838;28;20430;-73
2021/12/06 11:20:59;;;;;;;25.67;12.95;;;;;;;;;;5091900;28;20471;-73
2021/12/06 11:23:25;;;;;;;22.05;11.43;;;;;;;;;;5091825;28;20024;-73
2021/12/06 11:25:56;;;;;;;21.17;12.00;;;;;;;;;;5091828;28;20043;-73
2021/12/06 11:28:23;;;;;;;27.33;12.48;;;;;;;;;;5093059;28;20480;-72
2021/12/06 11:31:00;;;;;;;23.52;11.23;;;;;;;;;;5093578;28;20106;-73
2021/12/06 11:33:28;;;;;;;20.38;10.05;;;;;;;;;;5091675;28;20020;-73
2021/12/06 11:35:54;;;;;;;23.02;11.88;;;;;;;;;;5091666;28;20024;-72
2021/12/06 11:38:20;;;;;;;22.52;11.68;;;;;;;;;;5091031;28;20024;-72
2021/12/06 11:40:46;;;;;;;23.35;12.43;;;;;;;;;;5091699;28;20062;-72
2021/12/06 11:43:13;;;;;;;26.27;13.23;;;;;;;;;;5091746;28;20102;-72
2021/12/06 11:45:56;;;;;;;26.83;12.50;;;;;;;;;;5091410;28;20023;-74
2021/12/06 11:48:40;;;;;;;24.10;12.65;;;;;;;;;;5091643;28;20020;-73
2021/12/06 11:51:09;;;;;;;28.38;12.82;;;;;;;;;;5091629;28;20027;-71
2021/12/06 11:54:02;;;;;;;24.55;12.15;;;;;;;;;;5092697;28;20039;-72
2021/12/06 11:56:33;;;;;;;25.55;13.57;;;;;;;;;;5089837;28;20101;-72
2021/12/06 11:59:08;;;;;;;28.67;14.00;;;;;;;;;;5091540;28;20036;-72
2021/12/06 12:01:35;;;;;;;32.17;14.55;;;;;;;;;;5091689;28;20115;-72
2021/12/06 12:04:03;;;;;;;30.77;14.00;;;;;;;;;;5094989;28;20035;-72
2021/12/06 12:06:35;;;;;;;26.85;14.05;;;;;;;;;;5094942;28;20044;-72
2021/12/06 12:09:09;;;;;;;24.42;13.13;;;;;;;;;;5096437;28;20480;-73
2021/12/06 12:11:51;;;;;;;32.50;14.88;;;;;;;;;;5095011;28;20123;-72
2021/12/06 12:14:24;;;;;;;29.73;14.77;;;;;;;;;;5096117;28;20020;-73
2021/12/06 12:16:50;;;;;;;26.58;14.23;;;;;;;;;;5095082;28;20077;-72
2021/12/06 12:19:16;;;;;;;24.90;13.25;;;;;;;;;;5094884;28;20044;-72
2021/12/06 12:21:42;;;;;;;30.40;14.65;;;;;;;;;;5095271;28;20384;-73
2021/12/06 12:24:09;;;;;;;28.73;15.00;;;;;;;;;;5094502;28;20024;-73
2021/12/06 12:26:35;;;;;;;26.83;13.13;;;;;;;;;;5094764;28;20030;-72
2021/12/06 12:29:13;;;;;;;25.65;12.80;;;;;;;;;;5094883;28;20035;-72
2021/12/06 12:31:40;;;;;;;29.42;14.57;;;;;;;;;;5096341;28;20043;-72
2021/12/06 12:34:06;;;;;;;26.42;13.07;;;;;;;;;;5095845;28;20067;-72
2021/12/06 12:36:34;;;;;;;29.00;13.40;;;;;;;;;;5094073;28;20063;-74
2021/12/06 12:39:01;;;;;;;29.45;14.00;;;;;;;;;;5095193;28;20063;-72
2021/12/06 12:41:28;;;;;;;27.75;13.43;;;;;;;;;;5093528;28;20153;-72
2021/12/06 12:44:05;;;;;;;26.55;13.85;;;;;;;;;;5095326;28;20484;-72
2021/12/06 12:46:34;;;;;;;28.95;13.77;;;;;;;;;;5095599;28;20035;-73
2021/12/06 12:49:02;;;;;;;28.30;13.85;;;;;;;;;;5094499;28;20442;-72
2021/12/06 12:51:30;;;;;;;24.65;12.43;;;;;;;;;;5094377;28;20105;-72
2021/12/06 12:54:03;;;;;;;27.67;13.43;;;;;;;;;;5094254;28;20178;-71
2021/12/06 12:56:35;;;;;;;27.17;13.05;;;;;;;;;;5094057;28;20354;-72
2021/12/06 12:59:18;;;;;;;26.45;12.68;;;;;;;;;;5094266;28;20046;-72
2021/12/06 13:01:46;;;;;;;24.83;11.90;;;;;;;;;;5095711;28;20489;-73
2021/12/06 13:04:13;;;;;;;23.23;12.18;;;;;;;;;;5093755;28;20024;-73
2021/12/06 13:06:40;;;;;;;24.40;12.32;;;;;;;;;;5093945;28;20044;-73
2021/12/06 13:09:08;;;;;;;22.60;12.90;;;;;;;;;;5094104;28;20077;-73
2021/12/06 13:11:39;;;;;;;22.88;11.38;;;;;;;;;;5094096;28;20111;-73
2021/12/06 13:14:06;;;;;;;25.52;12.63;;;;;;;;;;5093749;28;20104;-73
2021/12/06 13:16:46;;;;;;;26.83;11.50;;;;;;;;;;5093734;28;20529;-73
2021/12/06 13:19:22;;;;;;;23.25;12.02;;;;;;;;;;5093836;28;20484;-72
2021/12/06 13:21:50;;;;;;;24.70;12.75;;;;;;;;;;5093919;28;20482;-72
2021/12/06 13:24:17;;;;;;;23.48;12.27;;;;;;;;;;5093339;28;20464;-72
2021/12/06 13:26:47;;;;;;;24.35;11.95;;;;;;;;;;5093787;28;20073;-72
2021/12/06 13:29:26;;;;;;;25.23;12.80;;;;;;;;;;5095277;28;20383;-72
2021/12/06 13:31:52;;;;;;;22.58;12.38;;;;;;;;;;5093657;28;20027;-72
2021/12/06 13:34:18;;;;;;;27.25;13.93;;;;;;;;;;5094561;28;20426;-72
2021/12/06 13:36:45;;;;;;;26.45;14.27;;;;;;;;;;5094609;28;20472;-72
2021/12/06 13:39:30;;;;;;;28.83;13.75;;;;;;;;;;5093262;28;20522;-72
2021/12/06 13:41:57;;;;;;;30.02;13.63;;;;;;;;;;5093160;28;20036;-72
2021/12/06 13:44:38;;;;;;;25.83;13.25;;;;;;;;;;5092934;28;20085;-71
2021/12/06 13:47:11;;;;;;;25.95;12.95;;;;;;;;;;5093486;28;20024;-73
2021/12/06 13:49:37;;;;;;;;;;;;;;;;;;5093746;28;20095;-72
2021/12/06 13:52:04;;;;;;;27.98;13.98;;;;;;;;;;5093313;28;19939;-72
2021/12/06 13:54:31;;;;;;;26.95;12.85;;;;;;;;;;5092836;28;20035;-72
2021/12/06 13:57:01;;;;;;;26.23;12.30;;;;;;;;;;5094387;28;20088;-72
2021/12/06 13:59:31;;;;;;;25.88;13.10;;;;;;;;;;5094583;28;20039;-71
2021/12/06 14:02:05;;;;;;;25.52;11.75;;;;;;;;;;5093069;28;20381;-71
2021/12/06 14:04:33;;;;;;;27.63;12.88;;;;;;;;;;5094119;28;20040;-72
2021/12/06 14:07:02;;;;;;;25.10;12.32;;;;;;;;;;5091107;28;20412;-71
2021/12/06 14:09:32;;;;;;;27.08;12.65;;;;;;;;;;5092816;28;20460;-71
2021/12/06 14:12:03;;;;;;;26.58;12.82;;;;;;;;;;5089266;28;20078;-72
2021/12/06 14:14:35;;;;;;;23.23;11.98;;;;;;;;;;5092494;28;20028;-71
2021/12/06 14:17:01;;;;;;;24.23;12.27;;;;;;;;;;5092171;28;20081;-71
2021/12/06 14:19:28;;;;;;;24.95;11.75;;;;;;;;;;5092598;28;20038;-71
2021/12/06 14:21:55;;;;;;;26.33;13.02;;;;;;;;;;5092587;28;20027;-71
2021/12/06 14:24:25;;;;;;;27.00;13.70;;;;;;;;;;5093218;28;20063;-73
2021/12/06 14:26:52;;;;;;;29.00;12.07;;;;;;;;;;5092548;28;20472;-72
2021/12/06 14:29:23;;;;;;;24.92;12.85;;;;;;;;;;5093838;28;20095;-73
2021/12/06 14:31:51;;;;;;;26.38;12.27;;;;;;;;;;5091392;28;20023;-72
2021/12/06 14:34:17;;;;;;;24.45;12.50;;;;;;;;;;5093406;28;20031;-72
2021/12/06 14:36:44;;;;;;;24.73;11.63;;;;;;;;;;5091024;28;20058;-72
2021/12/06 14:39:12;;;;;;;26.98;12.32;;;;;;;;;;5073201;28;20114;-71
2021/12/06 14:41:57;;;;;;;26.52;13.32;;;;;;;;;;5071813;28;20031;-71
2021/12/06 14:44:38;;;;;;;27.65;12.82;;;;;;;;;;5071751;28;20024;-71
2021/12/06 14:47:10;;;;;;;25.05;11.63;;;;;;;;;;5072152;28;20021;-72
2021/12/06 14:49:36;;;;;;;22.60;11.60;;;;;;;;;;5072107;28;20115;-72